Time;durP1;ratioP1;P1;durP2;ratioP2;P2;SDS_P1;SDS_P2;PMS_P1;PMS_P2;Temp;Humidity;BMP_temperature;BMP_pressure;BME280_temperature;BME280_humidity;BME280_pressure;Samples;Min_cycle;Max_cycle;Signal;HPM_P1;HPM_P2
2023/10/31 00:00:57;;;;;;;25.50;24.20;;;;;;;;;;5132002;27;20450;-77
2023/10/31 00:03:24;;;;;;;26.70;25.30;;;;;;;;;;5131880;27;20481;-78
2023/10/31 00:05:51;;;;;;;27.47;25.87;;;;;;;;;;5131203;27;20498;-78
2023/10/31 00:08:18;;;;;;;28.17;26.43;;;;;;;;;;5131599;27;20776;-78
2023/10/31 00:10:46;;;;;;;28.37;26.80;;;;;;;;;;5131665;27;20595;-78
2023/10/31 00:13:13;;;;;;;26.40;24.97;;;;;;;;;;5131824;27;20447;-78
2023/10/31 00:15:40;;;;;;;28.67;27.13;;;;;;;;;;5131330;27;20462;-78
2023/10/31 00:18:07;;;;;;;27.23;25.73;;;;;;;;;;5131901;27;20459;-78
2023/10/31 00:20:34;;;;;;;27.93;26.33;;;;;;;;;;5131918;27;20537;-78
2023/10/31 00:23:01;;;;;;;28.33;26.50;;;;;;;;;;5131911;27;20529;-78
2023/10/31 00:25:28;;;;;;;27.90;26.40;;;;;;;;;;5131206;27;20490;-77
2023/10/31 00:27:57;;;;;;;28.63;27.00;;;;;;;;;;5131496;27;20482;-78
2023/10/31 00:30:24;;;;;;;27.53;25.93;;;;;;;;;;5131725;27;20460;-78
2023/10/31 00:32:51;;;;;;;27.27;25.60;;;;;;;;;;5131624;27;20447;-79
2023/10/31 00:35:18;;;;;;;29.47;27.57;;;;;;;;;;5131327;27;20454;-78
2023/10/31 00:37:45;;;;;;;27.27;25.60;;;;;;;;;;5131044;27;20862;-77
2023/10/31 00:40:13;;;;;;;27.83;26.13;;;;;;;;;;5131156;27;20458;-78
2023/10/31 00:42:41;;;;;;;27.13;25.43;;;;;;;;;;5131529;28;20428;-77
2023/10/31 00:45:10;;;;;;;29.17;27.47;;;;;;;;;;5130740;28;20487;-77
2023/10/31 00:47:37;;;;;;;27.70;26.00;;;;;;;;;;5131295;28;20454;-77
2023/10/31 00:50:05;;;;;;;28.57;26.77;;;;;;;;;;5131553;28;20476;-78
2023/10/31 00:52:32;;;;;;;29.87;28.00;;;;;;;;;;5131531;28;20503;-79
2023/10/31 00:54:59;;;;;;;29.20;27.20;;;;;;;;;;5130776;28;20800;-78
2023/10/31 00:57:26;;;;;;;29.87;27.97;;;;;;;;;;5130736;28;20459;-77
2023/10/31 00:59:53;;;;;;;30.13;28.30;;;;;;;;;;5131085;28;20454;-78
2023/10/31 01:02:21;;;;;;;29.77;27.93;;;;;;;;;;5130883;28;20470;-78
2023/10/31 01:04:48;;;;;;;32.37;30.57;;;;;;;;;;5130107;28;20494;-79
2023/10/31 01:07:17;;;;;;;31.70;29.73;;;;;;;;;;5130594;28;20792;-78
2023/10/31 01:09:44;;;;;;;29.77;28.07;;;;;;;;;;5130785;28;20443;-78
2023/10/31 01:12:12;;;;;;;30.97;29.27;;;;;;;;;;5130950;28;20527;-78
2023/10/31 01:14:39;;;;;;;30.97;28.80;;;;;;;;;;5130321;28;20443;-78
2023/10/31 01:17:06;;;;;;;29.43;27.57;;;;;;;;;;5130740;28;20467;-78
2023/10/31 01:19:34;;;;;;;30.67;28.90;;;;;;;;;;5130468;28;20459;-78
2023/10/31 01:22:01;;;;;;;30.37;28.60;;;;;;;;;;5130282;28;20922;-78
2023/10/31 01:24:28;;;;;;;31.70;29.70;;;;;;;;;;5130194;28;20428;-79
2023/10/31 01:26:55;;;;;;;29.33;27.83;;;;;;;;;;5130492;28;20516;-77
2023/10/31 01:29:22;;;;;;;27.40;25.90;;;;;;;;;;5130128;28;20927;-77
2023/10/31 01:31:49;;;;;;;28.70;27.17;;;;;;;;;;5130404;28;20454;-77
2023/10/31 01:34:16;;;;;;;29.93;28.13;;;;;;;;;;5129658;28;20469;-79
2023/10/31 01:36:44;;;;;;;30.80;28.97;;;;;;;;;;5130481;28;20450;-77
2023/10/31 01:39:11;;;;;;;28.17;26.57;;;;;;;;;;5130279;28;20442;-78
2023/10/31 01:41:38;;;;;;;28.80;27.20;;;;;;;;;;5130105;28;20482;-78
2023/10/31 01:44:05;;;;;;;26.10;24.80;;;;;;;;;;5129989;28;20454;-78
2023/10/31 01:46:32;;;;;;;25.80;24.30;;;;;;;;;;5130419;28;20475;-77
2023/10/31 01:48:59;;;;;;;23.80;22.40;;;;;;;;;;5131797;27;20448;-78
2023/10/31 01:51:27;;;;;;;24.67;23.17;;;;;;;;;;5133900;27;20443;-78
2023/10/31 01:53:56;;;;;;;23.33;22.13;;;;;;;;;;5133657;27;20526;-79
2023/10/31 01:56:26;;;;;;;24.87;23.47;;;;;;;;;;5129666;27;20455;-78
2023/10/31 01:58:54;;;;;;;23.63;22.33;;;;;;;;;;5113896;28;20439;-77
2023/10/31 02:01:21;;;;;;;23.20;21.90;;;;;;;;;;5114400;28;20448;-78
2023/10/31 02:03:49;;;;;;;23.60;22.30;;;;;;;;;;5114429;28;20459;-78
2023/10/31 02:06:16;;;;;;;20.83;19.73;;;;;;;;;;5115904;28;20487;-79
2023/10/31 02:08:43;;;;;;;20.87;19.80;;;;;;;;;;5116029;28;20438;-78
2023/10/31 02:11:11;;;;;;;21.97;20.67;;;;;;;;;;5117366;28;20478;-78
2023/10/31 02:13:38;;;;;;;21.47;20.20;;;;;;;;;;5116292;28;20444;-79
2023/10/31 02:16:06;;;;;;;22.57;21.37;;;;;;;;;;5115579;28;20440;-77
2023/10/31 02:18:33;;;;;;;19.10;18.17;;;;;;;;;;5115885;28;20468;-78
2023/10/31 02:21:00;;;;;;;20.90;19.83;;;;;;;;;;5115331;28;20489;-77
2023/10/31 02:23:29;;;;;;;19.70;18.70;;;;;;;;;;5115263;28;20505;-78
2023/10/31 02:25:56;;;;;;;21.07;19.77;;;;;;;;;;5114531;28;20479;-78
2023/10/31 02:28:27;;;;;;;18.57;17.67;;;;;;;;;;5114896;28;20481;-77
2023/10/31 02:30:54;;;;;;;18.83;17.93;;;;;;;;;;5115094;28;20526;-77
2023/10/31 02:33:21;;;;;;;19.57;18.67;;;;;;;;;;5114518;28;20427;-79
2023/10/31 02:35:48;;;;;;;18.07;17.20;;;;;;;;;;5114148;28;20539;-77
2023/10/31 02:38:15;;;;;;;19.20;18.20;;;;;;;;;;5115011;28;20472;-77
2023/10/31 02:40:43;;;;;;;19.77;18.77;;;;;;;;;;5113984;28;20514;-78
2023/10/31 02:43:10;;;;;;;17.80;16.90;;;;;;;;;;5113865;28;20938;-78
2023/10/31 02:45:38;;;;;;;18.57;17.77;;;;;;;;;;5113301;28;20519;-78
2023/10/31 02:48:05;;;;;;;18.93;18.03;;;;;;;;;;5113621;28;20966;-78
2023/10/31 02:50:32;;;;;;;16.90;16.20;;;;;;;;;;5113879;28;20418;-77
2023/10/31 02:52:59;;;;;;;17.40;16.70;;;;;;;;;;5113577;28;20452;-78
2023/10/31 02:58:31;;;;;;;17.77;16.97;;;;;;;;;;5111707;27;20476;-78
2023/10/31 03:00:58;;;;;;;17.40;16.70;;;;;;;;;;5113309;28;20423;-79
2023/10/31 03:03:25;;;;;;;17.93;17.07;;;;;;;;;;5113425;28;20444;-78
2023/10/31 03:05:52;;;;;;;17.67;16.87;;;;;;;;;;5112727;28;20458;-79
2023/10/31 03:08:20;;;;;;;17.23;16.33;;;;;;;;;;5116195;27;20453;-78
2023/10/31 03:10:49;;;;;;;17.50;16.70;;;;;;;;;;5133702;27;20510;-77
2023/10/31 03:13:16;;;;;;;17.43;16.63;;;;;;;;;;5133354;27;20550;-77
2023/10/31 03:15:45;;;;;;;17.77;16.97;;;;;;;;;;5111838;28;20455;-78
2023/10/31 03:18:14;;;;;;;17.13;16.03;;;;;;;;;;5112371;28;20967;-77
2023/10/31 03:20:41;;;;;;;16.37;15.67;;;;;;;;;;5112949;28;20850;-77
2023/10/31 03:23:08;;;;;;;16.80;16.00;;;;;;;;;;5112648;28;20430;-77
2023/10/31 03:25:35;;;;;;;17.10;16.30;;;;;;;;;;5113784;27;20460;-77
2023/10/31 03:28:03;;;;;;;17.13;16.33;;;;;;;;;;5120072;27;20474;-77
2023/10/31 03:30:30;;;;;;;16.67;15.97;;;;;;;;;;5132761;27;20434;-77
2023/10/31 03:32:59;;;;;;;16.77;15.97;;;;;;;;;;5132800;27;20451;-78
2023/10/31 03:35:26;;;;;;;16.20;15.50;;;;;;;;;;5132093;27;20786;-78
2023/10/31 03:37:53;;;;;;;16.80;16.10;;;;;;;;;;5132505;27;20475;-77
2023/10/31 03:40:20;;;;;;;15.60;15.00;;;;;;;;;;5132753;27;20860;-78
2023/10/31 03:42:47;;;;;;;16.17;15.47;;;;;;;;;;5132765;27;20432;-79
2023/10/31 03:45:14;;;;;;;16.90;16.07;;;;;;;;;;5131812;27;20446;-77
2023/10/31 03:47:41;;;;;;;16.50;15.80;;;;;;;;;;5131945;27;20474;-77
2023/10/31 03:50:10;;;;;;;17.10;16.30;;;;;;;;;;5132062;27;20446;-78
2023/10/31 03:52:37;;;;;;;16.83;16.03;;;;;;;;;;5131830;27;20451;-78
2023/10/31 03:55:04;;;;;;;16.63;15.77;;;;;;;;;;5131240;27;20449;-78
2023/10/31 03:57:31;;;;;;;17.43;16.20;;;;;;;;;;5131588;27;20473;-77
2023/10/31 03:59:58;;;;;;;16.87;16.17;;;;;;;;;;5131659;27;20421;-77
2023/10/31 04:02:25;;;;;;;17.23;16.30;;;;;;;;;;5131643;27;20454;-78
2023/10/31 04:04:52;;;;;;;16.90;15.90;;;;;;;;;;5130911;27;20425;-77
2023/10/31 04:07:21;;;;;;;16.33;15.63;;;;;;;;;;5131501;27;20487;-77
2023/10/31 04:09:48;;;;;;;16.80;16.00;;;;;;;;;;5131416;27;20450;-78
2023/10/31 04:12:15;;;;;;;16.43;15.70;;;;;;;;;;5130886;27;20446;-77
2023/10/31 04:14:42;;;;;;;17.30;16.40;;;;;;;;;;5130967;27;20478;-79
2023/10/31 04:17:09;;;;;;;17.57;16.67;;;;;;;;;;5131542;27;20440;-77
2023/10/31 04:19:38;;;;;;;17.30;16.50;;;;;;;;;;5131046;27;20929;-77
2023/10/31 04:22:05;;;;;;;17.53;16.63;;;;;;;;;;5131205;27;20454;-78
2023/10/31 04:24:33;;;;;;;17.40;16.50;;;;;;;;;;5130852;27;20447;-77
2023/10/31 04:27:00;;;;;;;17.33;16.43;;;;;;;;;;5131082;27;20490;-77
2023/10/31 04:29:27;;;;;;;17.23;16.20;;;;;;;;;;5131171;27;20447;-78
2023/10/31 04:31:55;;;;;;;18.90;17.90;;;;;;;;;;5131331;27;20449;-78
2023/10/31 04:34:22;;;;;;;17.20;16.30;;;;;;;;;;5130499;27;20938;-79
2023/10/31 04:36:48;;;;;;;18.07;17.17;;;;;;;;;;5131439;27;20466;-78
2023/10/31 04:39:16;;;;;;;17.90;16.90;;;;;;;;;;5130842;27;20932;-77
2023/10/31 04:41:44;;;;;;;19.63;18.53;;;;;;;;;;5130923;27;20577;-78
2023/10/31 04:44:11;;;;;;;17.13;16.33;;;;;;;;;;5130337;28;20451;-78
2023/10/31 04:46:38;;;;;;;18.50;17.60;;;;;;;;;;5131147;28;20980;-77
2023/10/31 04:49:05;;;;;;;20.20;19.00;;;;;;;;;;5131053;28;20454;-78
2023/10/31 04:51:34;;;;;;;39.27;31.83;;;;;;;;;;5130871;28;20421;-77
2023/10/31 04:54:01;;;;;;;27.23;25.33;;;;;;;;;;5130427;28;20506;-77
2023/10/31 04:56:28;;;;;;;28.97;26.87;;;;;;;;;;5130809;28;20422;-78
2023/10/31 04:58:56;;;;;;;21.10;19.80;;;;;;;;;;5131069;28;20446;-77
2023/10/31 05:01:24;;;;;;;26.40;24.60;;;;;;;;;;5130864;28;20458;-78
2023/10/31 05:03:51;;;;;;;23.93;22.37;;;;;;;;;;5130384;28;20453;-78
2023/10/31 05:06:20;;;;;;;29.77;27.53;;;;;;;;;;5130696;28;20485;-78
2023/10/31 05:08:47;;;;;;;20.10;19.00;;;;;;;;;;5130892;28;20467;-78
2023/10/31 05:11:14;;;;;;;23.23;21.83;;;;;;;;;;5130717;28;20858;-78
2023/10/31 05:13:41;;;;;;;25.70;24.00;;;;;;;;;;5130711;28;20966;-78
2023/10/31 05:16:11;;;;;;;23.10;21.57;;;;;;;;;;5130824;28;20451;-78
2023/10/31 05:18:38;;;;;;;21.67;20.30;;;;;;;;;;5131268;28;20515;-78
2023/10/31 05:21:05;;;;;;;22.97;21.47;;;;;;;;;;5130897;28;20451;-78
2023/10/31 05:23:32;;;;;;;19.03;17.93;;;;;;;;;;5131455;27;20495;-77
2023/10/31 05:25:59;;;;;;;22.03;20.20;;;;;;;;;;5133924;27;20483;-77
2023/10/31 05:28:26;;;;;;;22.50;21.03;;;;;;;;;;5134617;27;20489;-77
2023/10/31 05:30:53;;;;;;;22.33;20.93;;;;;;;;;;5134441;27;20447;-78
2023/10/31 05:33:23;;;;;;;23.73;22.20;;;;;;;;;;5134587;27;20450;-79
2023/10/31 05:35:50;;;;;;;23.20;21.30;;;;;;;;;;5133861;27;20443;-78
2023/10/31 05:38:17;;;;;;;22.67;21.10;;;;;;;;;;5134304;27;21028;-77
2023/10/31 05:40:44;;;;;;;25.20;23.37;;;;;;;;;;5133582;27;20477;-78
2023/10/31 05:43:11;;;;;;;25.70;23.83;;;;;;;;;;5134257;27;20454;-79
2023/10/31 05:45:38;;;;;;;24.77;23.13;;;;;;;;;;5133571;27;20918;-78
2023/10/31 05:48:06;;;;;;;25.63;23.47;;;;;;;;;;5134280;27;20441;-77
2023/10/31 05:50:34;;;;;;;25.60;23.70;;;;;;;;;;5115588;27;20558;-78
2023/10/31 05:53:01;;;;;;;24.20;22.40;;;;;;;;;;5111468;28;20475;-79
2023/10/31 05:55:28;;;;;;;27.97;25.97;;;;;;;;;;5112251;28;20459;-77
2023/10/31 05:57:55;;;;;;;24.30;22.30;;;;;;;;;;5111206;28;20866;-78
2023/10/31 06:00:22;;;;;;;27.53;25.30;;;;;;;;;;5112753;28;20435;-78
2023/10/31 06:02:49;;;;;;;27.87;25.57;;;;;;;;;;5112421;28;20422;-78
2023/10/31 06:05:16;;;;;;;27.10;25.03;;;;;;;;;;5112139;28;20452;-79
2023/10/31 06:07:45;;;;;;;25.33;23.43;;;;;;;;;;5112289;28;21018;-78
2023/10/31 06:10:12;;;;;;;27.43;25.33;;;;;;;;;;5116754;27;20467;-79
2023/10/31 06:12:39;;;;;;;26.63;24.83;;;;;;;;;;5112852;28;20494;-77
2023/10/31 06:15:08;;;;;;;23.67;22.10;;;;;;;;;;5112038;27;20462;-78
2023/10/31 06:17:35;;;;;;;26.90;24.57;;;;;;;;;;5112637;28;20441;-78
2023/10/31 06:20:02;;;;;;;27.47;25.37;;;;;;;;;;5112620;28;20510;-77
2023/10/31 06:22:29;;;;;;;25.27;23.37;;;;;;;;;;5112651;28;20422;-78
2023/10/31 06:24:58;;;;;;;27.50;25.40;;;;;;;;;;5112354;28;20447;-78
2023/10/31 06:27:25;;;;;;;28.80;26.40;;;;;;;;;;5112671;28;20557;-77
2023/10/31 06:29:52;;;;;;;27.10;25.10;;;;;;;;;;5113216;28;20472;-78
2023/10/31 06:32:19;;;;;;;29.47;26.97;;;;;;;;;;5113180;28;20448;-78
2023/10/31 06:34:46;;;;;;;29.53;27.10;;;;;;;;;;5112466;28;20423;-77
2023/10/31 06:37:14;;;;;;;28.73;26.33;;;;;;;;;;5113126;28;20471;-78
2023/10/31 06:39:41;;;;;;;25.87;23.87;;;;;;;;;;5113027;28;20428;-78
2023/10/31 06:42:09;;;;;;;29.67;27.23;;;;;;;;;;5112749;28;20463;-77
2023/10/31 06:44:35;;;;;;;22.53;21.03;;;;;;;;;;5111989;28;20422;-78
2023/10/31 06:47:02;;;;;;;29.30;26.90;;;;;;;;;;5112667;28;21238;-78
2023/10/31 06:49:29;;;;;;;27.30;25.20;;;;;;;;;;5112717;28;20419;-78
2023/10/31 06:51:56;;;;;;;23.67;22.00;;;;;;;;;;5112730;28;20936;-78
2023/10/31 06:54:23;;;;;;;25.23;23.43;;;;;;;;;;5131152;27;20425;-79
2023/10/31 06:56:50;;;;;;;25.13;23.10;;;;;;;;;;5133197;27;20442;-77
2023/10/31 06:59:19;;;;;;;27.23;25.10;;;;;;;;;;5133591;27;20418;-78
2023/10/31 07:01:46;;;;;;;25.90;24.00;;;;;;;;;;5121533;27;20452;-77
2023/10/31 07:04:13;;;;;;;23.93;22.27;;;;;;;;;;5126231;27;20450;-80
2023/10/31 07:06:40;;;;;;;27.30;25.20;;;;;;;;;;5131831;27;20509;-78
2023/10/31 07:09:07;;;;;;;27.57;25.50;;;;;;;;;;5131965;27;20442;-77
2023/10/31 07:11:34;;;;;;;22.90;21.40;;;;;;;;;;5131488;27;20927;-79
2023/10/31 07:14:02;;;;;;;28.17;25.97;;;;;;;;;;5131184;27;20421;-78
2023/10/31 07:16:30;;;;;;;26.93;25.03;;;;;;;;;;5132062;27;20414;-78
2023/10/31 07:18:57;;;;;;;28.70;26.70;;;;;;;;;;5132326;27;20890;-79
2023/10/31 07:21:24;;;;;;;24.57;22.67;;;;;;;;;;5132673;27;20425;-78
2023/10/31 07:23:51;;;;;;;25.73;23.93;;;;;;;;;;5132043;27;20416;-78
2023/10/31 07:26:18;;;;;;;26.90;25.10;;;;;;;;;;5132546;27;20433;-78
2023/10/31 07:28:46;;;;;;;27.57;25.60;;;;;;;;;;5132645;27;20445;-78
2023/10/31 07:31:13;;;;;;;28.07;25.87;;;;;;;;;;5132357;27;20455;-78
2023/10/31 07:33:41;;;;;;;22.57;21.27;;;;;;;;;;5131732;27;21231;-78
2023/10/31 07:36:09;;;;;;;23.70;22.10;;;;;;;;;;5113300;27;20450;-77
2023/10/31 07:38:36;;;;;;;24.43;22.80;;;;;;;;;;5111730;28;20475;-77
2023/10/31 07:41:03;;;;;;;23.00;21.60;;;;;;;;;;5111610;28;20567;-77
2023/10/31 07:43:30;;;;;;;22.33;20.80;;;;;;;;;;5111857;28;20455;-78
2023/10/31 07:45:57;;;;;;;20.20;19.00;;;;;;;;;;5123945;27;20454;-77
2023/10/31 07:48:24;;;;;;;22.20;20.90;;;;;;;;;;5132080;27;20473;-78
2023/10/31 07:50:53;;;;;;;22.90;21.50;;;;;;;;;;5131827;27;21042;-78
2023/10/31 07:53:20;;;;;;;22.70;21.30;;;;;;;;;;5117581;27;20915;-78
2023/10/31 07:55:47;;;;;;;22.80;21.50;;;;;;;;;;5110968;28;20509;-79
2023/10/31 07:58:14;;;;;;;22.93;21.60;;;;;;;;;;5111367;28;20460;-78
2023/10/31 08:00:41;;;;;;;23.47;22.27;;;;;;;;;;5111492;28;20459;-78
2023/10/31 08:03:08;;;;;;;21.57;20.33;;;;;;;;;;5111336;28;20430;-78
2023/10/31 08:05:35;;;;;;;19.00;18.10;;;;;;;;;;5110643;28;20452;-78
2023/10/31 08:08:04;;;;;;;22.20;20.90;;;;;;;;;;5111289;28;20462;-78
2023/10/31 08:10:31;;;;;;;21.30;20.10;;;;;;;;;;5110695;28;20447;-78
2023/10/31 08:12:58;;;;;;;21.80;20.40;;;;;;;;;;5111084;28;20414;-78
2023/10/31 08:15:25;;;;;;;22.50;20.90;;;;;;;;;;5110267;28;20526;-78
2023/10/31 08:17:52;;;;;;;22.50;21.10;;;;;;;;;;5110915;28;20942;-78
2023/10/31 08:20:19;;;;;;;23.60;22.07;;;;;;;;;;5111093;28;20410;-78
2023/10/31 08:22:46;;;;;;;21.70;20.30;;;;;;;;;;5111005;28;20414;-78
2023/10/31 08:25:15;;;;;;;22.00;20.60;;;;;;;;;;5110201;28;20448;-78
2023/10/31 08:27:42;;;;;;;20.90;19.80;;;;;;;;;;5110966;28;20458;-77
2023/10/31 08:30:09;;;;;;;20.87;19.40;;;;;;;;;;5111407;28;20435;-78
2023/10/31 08:32:36;;;;;;;22.73;20.70;;;;;;;;;;5110989;27;20431;-77
2023/10/31 08:35:04;;;;;;;21.23;19.70;;;;;;;;;;5113558;27;20426;-78
2023/10/31 08:37:31;;;;;;;21.80;20.37;;;;;;;;;;5110496;28;20468;-77
2023/10/31 08:39:58;;;;;;;20.20;18.90;;;;;;;;;;5111407;28;20452;-79
2023/10/31 08:42:26;;;;;;;21.53;20.23;;;;;;;;;;5111524;28;20440;-79
2023/10/31 08:44:53;;;;;;;22.57;21.10;;;;;;;;;;5111369;28;20429;-78
2023/10/31 08:47:20;;;;;;;19.10;17.93;;;;;;;;;;5115042;28;20897;-77
2023/10/31 08:49:47;;;;;;;22.23;20.77;;;;;;;;;;5115091;28;20452;-80
2023/10/31 08:52:14;;;;;;;22.63;21.20;;;;;;;;;;5115618;28;20422;-82
2023/10/31 08:54:42;;;;;;;20.77;19.53;;;;;;;;;;5117772;28;20422;-83
2023/10/31 08:57:09;;;;;;;20.60;19.30;;;;;;;;;;5118060;28;20475;-82
2023/10/31 08:59:37;;;;;;;20.07;18.87;;;;;;;;;;5123229;28;20440;-83
2023/10/31 09:02:04;;;;;;;20.03;18.97;;;;;;;;;;5122984;28;20426;-83
2023/10/31 09:04:31;;;;;;;19.37;18.17;;;;;;;;;;5122810;28;20458;-83
2023/10/31 09:07:00;;;;;;;18.10;17.03;;;;;;;;;;5122895;28;20471;-83
2023/10/31 09:09:27;;;;;;;19.47;18.40;;;;;;;;;;5122306;28;20406;-82
2023/10/31 09:11:54;;;;;;;19.77;18.57;;;;;;;;;;5121881;28;20939;-82
2023/10/31 09:14:21;;;;;;;19.60;18.50;;;;;;;;;;5120852;28;20448;-82
2023/10/31 09:16:50;;;;;;;19.43;18.33;;;;;;;;;;5122899;28;20467;-81
2023/10/31 09:19:17;;;;;;;19.87;18.67;;;;;;;;;;5122736;28;20436;-82
2023/10/31 09:21:44;;;;;;;20.40;19.30;;;;;;;;;;5123789;28;20438;-82
2023/10/31 09:24:12;;;;;;;20.27;18.93;;;;;;;;;;5122510;28;20423;-83
2023/10/31 09:26:43;;;;;;;21.07;19.77;;;;;;;;;;5122641;28;20439;-80
2023/10/31 09:29:10;;;;;;;21.30;19.90;;;;;;;;;;5122784;28;20454;-83
2023/10/31 09:31:37;;;;;;;22.13;20.83;;;;;;;;;;5126992;27;20433;-81
2023/10/31 09:34:07;;;;;;;22.70;20.90;;;;;;;;;;5143123;27;20435;-80
2023/10/31 09:36:35;;;;;;;23.40;21.80;;;;;;;;;;5143131;27;20461;-84
2023/10/31 09:39:02;;;;;;;22.13;20.73;;;;;;;;;;5143029;27;20470;-83
2023/10/31 09:41:30;;;;;;;23.30;21.60;;;;;;;;;;5142591;27;20459;-82
2023/10/31 09:43:57;;;;;;;21.80;20.10;;;;;;;;;;5142576;27;20484;-83
2023/10/31 09:46:24;;;;;;;23.57;21.97;;;;;;;;;;5142973;27;20503;-82
2023/10/31 09:48:51;;;;;;;24.73;22.93;;;;;;;;;;5142226;27;20512;-82
2023/10/31 09:51:20;;;;;;;25.50;22.87;;;;;;;;;;5122524;28;20426;-84
2023/10/31 09:53:48;;;;;;;23.60;21.70;;;;;;;;;;5121741;28;20493;-84
2023/10/31 09:56:16;;;;;;;25.57;23.67;;;;;;;;;;5122733;28;20429;-83
2023/10/31 09:58:44;;;;;;;26.17;24.27;;;;;;;;;;5122703;28;20464;-83
2023/10/31 10:01:11;;;;;;;25.57;23.50;;;;;;;;;;5123246;28;20507;-82
2023/10/31 10:03:38;;;;;;;25.67;23.87;;;;;;;;;;5122376;28;20957;-82
2023/10/31 10:06:06;;;;;;;26.50;24.50;;;;;;;;;;5121750;28;21046;-83
2023/10/31 10:08:38;;;;;;;27.73;25.43;;;;;;;;;;5122724;28;20469;-83
2023/10/31 10:11:05;;;;;;;24.13;22.33;;;;;;;;;;5121546;28;20425;-83
2023/10/31 10:13:32;;;;;;;23.33;21.63;;;;;;;;;;5122419;28;20935;-82
2023/10/31 10:15:59;;;;;;;25.60;23.77;;;;;;;;;;5122021;28;20426;-83
2023/10/31 10:18:27;;;;;;;25.00;22.90;;;;;;;;;;5122841;28;20513;-82
2023/10/31 10:20:57;;;;;;;24.67;23.00;;;;;;;;;;5122311;28;20513;-82
2023/10/31 10:23:25;;;;;;;28.63;26.40;;;;;;;;;;5122339;28;20471;-83
2023/10/31 10:25:54;;;;;;;28.17;26.13;;;;;;;;;;5121348;28;20474;-82
2023/10/31 10:28:21;;;;;;;28.30;26.07;;;;;;;;;;5121871;28;20491;-83
2023/10/31 10:30:48;;;;;;;23.33;21.73;;;;;;;;;;5121429;28;20446;-83
2023/10/31 10:33:15;;;;;;;29.97;27.53;;;;;;;;;;5121944;28;20444;-83
2023/10/31 10:35:42;;;;;;;28.40;26.00;;;;;;;;;;5121651;28;20415;-83
2023/10/31 10:38:12;;;;;;;31.73;29.10;;;;;;;;;;5121676;27;20446;-82
2023/10/31 10:40:41;;;;;;;31.83;29.20;;;;;;;;;;5120854;28;20419;-83
2023/10/31 10:43:13;;;;;;;32.07;29.50;;;;;;;;;;5121119;28;20437;-83
2023/10/31 10:45:43;;;;;;;31.57;28.83;;;;;;;;;;5121076;28;20674;-81
2023/10/31 10:48:12;;;;;;;31.50;28.90;;;;;;;;;;5121543;28;20502;-82
2023/10/31 10:50:43;;;;;;;28.13;26.00;;;;;;;;;;5120974;28;20450;-83
2023/10/31 10:53:18;;;;;;;32.10;29.53;;;;;;;;;;5120485;28;20407;-82
2023/10/31 10:55:46;;;;;;;27.70;25.60;;;;;;;;;;5120553;28;20448;-83
2023/10/31 10:58:19;;;;;;;32.00;29.30;;;;;;;;;;5120983;28;20942;-83
2023/10/31 11:00:46;;;;;;;30.43;27.93;;;;;;;;;;5121396;28;20407;-83
2023/10/31 11:03:13;;;;;;;30.30;28.13;;;;;;;;;;5120184;28;20444;-81
2023/10/31 11:05:41;;;;;;;32.00;29.40;;;;;;;;;;5119545;28;20448;-82
2023/10/31 11:08:09;;;;;;;31.17;28.53;;;;;;;;;;5119067;28;20954;-82
2023/10/31 11:10:37;;;;;;;30.83;28.47;;;;;;;;;;5119548;28;21244;-81
2023/10/31 11:13:04;;;;;;;30.40;28.00;;;;;;;;;;5119860;28;20771;-82
2023/10/31 11:15:32;;;;;;;31.57;28.97;;;;;;;;;;5119865;28;20451;-81
2023/10/31 11:18:00;;;;;;;31.60;29.20;;;;;;;;;;5119388;28;20438;-82
2023/10/31 11:20:29;;;;;;;31.07;28.57;;;;;;;;;;5119058;28;20790;-82
2023/10/31 11:22:57;;;;;;;30.00;27.67;;;;;;;;;;5119141;28;20967;-82
2023/10/31 11:25:24;;;;;;;32.90;30.10;;;;;;;;;;5120096;28;20452;-82
2023/10/31 11:27:52;;;;;;;36.10;33.30;;;;;;;;;;5119783;28;20476;-83
2023/10/31 11:30:22;;;;;;;34.63;31.70;;;;;;;;;;5119868;28;20451;-82
2023/10/31 11:32:53;;;;;;;37.70;34.50;;;;;;;;;;5119727;28;20451;-82
2023/10/31 11:35:20;;;;;;;38.07;34.73;;;;;;;;;;5118532;28;20414;-82
2023/10/31 11:37:49;;;;;;;34.40;31.80;;;;;;;;;;5119871;28;20453;-82
2023/10/31 11:40:21;;;;;;;36.70;33.60;;;;;;;;;;5120766;28;20470;-82
2023/10/31 11:42:50;;;;;;;37.47;34.60;;;;;;;;;;5119402;28;20403;-81
2023/10/31 11:45:27;;;;;;;36.07;33.17;;;;;;;;;;5112732;28;20444;-76
2023/10/31 11:47:56;;;;;;;38.93;35.80;;;;;;;;;;5111222;28;20965;-77
2023/10/31 11:50:23;;;;;;;38.80;35.77;;;;;;;;;;5111535;28;20556;-78
2023/10/31 11:53:00;;;;;;;41.83;38.43;;;;;;;;;;5115631;28;20472;-81
2023/10/31 11:55:27;;;;;;;43.10;39.50;;;;;;;;;;5117735;28;20402;-82
2023/10/31 11:57:54;;;;;;;39.27;36.00;;;;;;;;;;5122054;28;20805;-81
2023/10/31 12:00:22;;;;;;;42.63;39.23;;;;;;;;;;5118560;28;20535;-79
2023/10/31 12:02:59;;;;;;;41.00;37.60;;;;;;;;;;5116283;28;20828;-82
2023/10/31 12:05:26;;;;;;;40.03;36.83;;;;;;;;;;5118045;28;20487;-79
2023/10/31 12:07:54;;;;;;;45.53;41.53;;;;;;;;;;5118751;28;20472;-80
2023/10/31 12:10:24;;;;;;;43.57;39.97;;;;;;;;;;5130808;27;20458;-79
2023/10/31 12:12:51;;;;;;;42.40;38.80;;;;;;;;;;5139407;27;20526;-80
2023/10/31 12:15:19;;;;;;;41.87;38.37;;;;;;;;;;5138511;27;20455;-79
2023/10/31 12:17:46;;;;;;;37.37;34.47;;;;;;;;;;5138140;27;20478;-77
2023/10/31 12:20:16;;;;;;;44.77;40.70;;;;;;;;;;5139205;27;20455;-80
2023/10/31 12:22:43;;;;;;;40.60;37.43;;;;;;;;;;5118801;28;20439;-80
2023/10/31 12:25:11;;;;;;;42.40;38.63;;;;;;;;;;5120090;28;20411;-79
2023/10/31 12:27:44;;;;;;;42.10;38.80;;;;;;;;;;5120696;28;20464;-80
2023/10/31 12:30:12;;;;;;;37.97;35.10;;;;;;;;;;5120395;28;20523;-80
2023/10/31 12:32:39;;;;;;;44.30;40.80;;;;;;;;;;5119414;28;20448;-81
2023/10/31 12:35:06;;;;;;;41.97;38.33;;;;;;;;;;5120053;28;20804;-80
2023/10/31 12:37:35;;;;;;;41.67;38.27;;;;;;;;;;5120096;28;20463;-81
2023/10/31 12:40:04;;;;;;;41.57;38.07;;;;;;;;;;5120885;28;20447;-80
2023/10/31 12:42:31;;;;;;;42.23;38.73;;;;;;;;;;5120304;28;20456;-80
2023/10/31 12:45:00;;;;;;;41.93;38.50;;;;;;;;;;5119988;28;20450;-79
2023/10/31 12:47:27;;;;;;;39.47;35.87;;;;;;;;;;5119722;28;20499;-79
2023/10/31 12:50:09;;;;;;;41.37;38.07;;;;;;;;;;5120131;28;20462;-80
2023/10/31 12:52:50;;;;;;;38.60;35.60;;;;;;;;;;5116790;28;20479;-80
2023/10/31 12:55:18;;;;;;;37.27;34.17;;;;;;;;;;5119386;28;20425;-80
2023/10/31 12:57:46;;;;;;;37.77;34.33;;;;;;;;;;5119639;28;20456;-80
2023/10/31 13:00:13;;;;;;;34.53;31.83;;;;;;;;;;5119199;28;20463;-80
2023/10/31 13:02:41;;;;;;;34.00;31.23;;;;;;;;;;5118226;28;20459;-79
2023/10/31 13:05:12;;;;;;;32.87;30.33;;;;;;;;;;5118986;28;20423;-80
2023/10/31 13:07:39;;;;;;;32.43;29.73;;;;;;;;;;5119212;28;20506;-80
2023/10/31 13:10:10;;;;;;;35.40;32.70;;;;;;;;;;5119326;28;20480;-80
2023/10/31 13:12:37;;;;;;;36.10;33.37;;;;;;;;;;5119736;28;20407;-80
2023/10/31 13:15:05;;;;;;;34.27;31.47;;;;;;;;;;5119304;28;20453;-80
2023/10/31 13:17:32;;;;;;;37.07;34.23;;;;;;;;;;5118707;28;20475;-80
2023/10/31 13:20:00;;;;;;;38.80;35.80;;;;;;;;;;5119805;28;20894;-80
2023/10/31 13:22:27;;;;;;;34.20;31.57;;;;;;;;;;5118998;28;20452;-80
2023/10/31 13:24:54;;;;;;;36.40;33.60;;;;;;;;;;5118545;28;20467;-80
2023/10/31 13:27:22;;;;;;;36.50;33.47;;;;;;;;;;5118722;28;20442;-79
2023/10/31 13:29:49;;;;;;;35.00;32.40;;;;;;;;;;5119153;28;20470;-80
2023/10/31 13:32:17;;;;;;;35.90;33.00;;;;;;;;;;5119689;28;20448;-80
2023/10/31 13:34:44;;;;;;;33.90;31.47;;;;;;;;;;5118803;28;20971;-80
2023/10/31 13:37:11;;;;;;;35.30;31.97;;;;;;;;;;5119454;28;20460;-80
2023/10/31 13:39:38;;;;;;;33.67;30.77;;;;;;;;;;5119265;28;20451;-81
2023/10/31 13:42:05;;;;;;;37.90;35.10;;;;;;;;;;5119642;28;20456;-81
2023/10/31 13:44:34;;;;;;;31.90;29.50;;;;;;;;;;5119900;28;20961;-80
2023/10/31 13:47:01;;;;;;;35.43;32.10;;;;;;;;;;5121927;27;20466;-83
2023/10/31 13:49:28;;;;;;;34.70;31.80;;;;;;;;;;5119971;28;20474;-80
2023/10/31 13:51:55;;;;;;;37.53;34.33;;;;;;;;;;5116248;28;20565;-80
2023/10/31 13:54:22;;;;;;;39.57;36.47;;;;;;;;;;5115505;28;20415;-78
2023/10/31 13:56:49;;;;;;;39.10;35.90;;;;;;;;;;5130440;27;20467;-78
2023/10/31 13:59:18;;;;;;;43.57;39.43;;;;;;;;;;5137239;27;20807;-79
2023/10/31 14:01:46;;;;;;;37.37;33.87;;;;;;;;;;5136829;27;20421;-79
2023/10/31 14:04:14;;;;;;;42.20;38.60;;;;;;;;;;5136001;27;20425;-79
2023/10/31 14:06:41;;;;;;;37.60;34.40;;;;;;;;;;5136439;27;20445;-79
2023/10/31 14:09:09;;;;;;;33.60;30.80;;;;;;;;;;5137073;27;20464;-80
2023/10/31 14:11:37;;;;;;;28.47;26.17;;;;;;;;;;5137128;27;20433;-78
2023/10/31 14:14:06;;;;;;;35.50;32.47;;;;;;;;;;5135421;27;20884;-79
2023/10/31 14:16:33;;;;;;;38.07;34.63;;;;;;;;;;5136512;27;20558;-79
2023/10/31 14:19:02;;;;;;;29.90;27.60;;;;;;;;;;5136975;27;20421;-79
2023/10/31 14:21:29;;;;;;;38.50;35.13;;;;;;;;;;5136551;27;20494;-80